Time;durP1;ratioP1;P1;durP2;ratioP2;P2;SDS_P1;SDS_P2;PMS_P1;PMS_P2;Temp;Humidity;BMP_temperature;BMP_pressure;BME280_temperature;BME280_humidity;BME280_pressure;Samples;Min_cycle;Max_cycle;Signal;HPM_P1;HPM_P2
2023/04/16 00:00:09;;;;;;;15.67;14.80;;;10.70;45.30;;;;;;5028471;28;20169;-74
2023/04/16 00:02:34;;;;;;;15.63;14.73;;;10.80;45.00;;;;;;5024737;28;20200;-74
2023/04/16 00:05:00;;;;;;;15.10;14.30;;;10.70;45.40;;;;;;5026229;28;20418;-75
2023/04/16 00:07:25;;;;;;;16.27;15.27;;;10.70;45.70;;;;;;5024750;28;20216;-74
2023/04/16 00:09:51;;;;;;;14.97;14.07;;;10.70;45.60;;;;;;5024674;28;20249;-75
2023/04/16 00:12:17;;;;;;;14.70;13.90;;;10.70;46.10;;;;;;5025431;28;20545;-75
2023/04/16 00:14:42;;;;;;;15.30;14.50;;;10.70;45.40;;;;;;5024926;28;20197;-75
2023/04/16 00:17:08;;;;;;;15.40;14.40;;;10.70;45.50;;;;;;5022985;28;20706;-75
2023/04/16 00:19:34;;;;;;;16.97;15.97;;;10.80;44.70;;;;;;5023562;28;20173;-75
2023/04/16 00:22:00;;;;;;;15.70;14.80;;;10.80;44.70;;;;;;5023884;28;20411;-74
2023/04/16 00:24:25;;;;;;;16.30;15.37;;;10.90;43.90;;;;;;5024344;28;20230;-74
2023/04/16 00:26:51;;;;;;;16.07;15.27;;;10.90;43.50;;;;;;5023360;28;20234;-74
2023/04/16 00:29:16;;;;;;;15.90;14.90;;;10.80;44.20;;;;;;5024045;28;20172;-74
2023/04/16 00:31:42;;;;;;;15.50;14.60;;;10.60;45.80;;;;;;5025013;28;20165;-74
2023/04/16 00:34:07;;;;;;;15.60;14.80;;;10.50;47.00;;;;;;5024350;28;20238;-75
2023/04/16 00:36:33;;;;;;;16.30;15.40;;;10.40;47.60;;;;;;5022030;28;20667;-75
2023/04/16 00:38:58;;;;;;;16.27;15.37;;;10.50;47.80;;;;;;5023583;28;20255;-74
2023/04/16 00:41:25;;;;;;;16.40;15.50;;;10.60;47.40;;;;;;5022859;28;20299;-74
2023/04/16 00:43:50;;;;;;;16.30;15.40;;;10.60;45.70;;;;;;5021770;28;20204;-74
2023/04/16 00:46:19;;;;;;;15.27;14.37;;;10.80;45.50;;;;;;5023255;28;20467;-74
2023/04/16 00:48:45;;;;;;;16.30;15.40;;;10.70;45.40;;;;;;5021903;28;20174;-74
2023/04/16 00:51:11;;;;;;;15.93;15.03;;;10.80;45.00;;;;;;5022354;28;20924;-74
2023/04/16 00:53:37;;;;;;;16.17;15.30;;;10.80;44.90;;;;;;5022783;28;20929;-74
2023/04/16 00:56:04;;;;;;;15.17;14.33;;;10.70;45.60;;;;;;5021830;28;20184;-75
2023/04/16 00:58:30;;;;;;;15.23;14.43;;;10.70;44.40;;;;;;5021294;28;20250;-74
2023/04/16 01:00:56;;;;;;;14.83;14.03;;;10.70;44.70;;;;;;5022716;28;20411;-74
2023/04/16 01:03:26;;;;;;;16.47;15.47;;;10.60;45.10;;;;;;5020395;23;20553;-55
2023/04/16 01:05:51;;;;;;;14.57;13.73;;;10.50;46.60;;;;;;5001515;28;20316;-54
2023/04/16 01:08:19;;;;;;;15.73;14.73;;;10.50;47.00;;;;;;5002574;28;20523;-55
2023/04/16 01:10:45;;;;;;;15.73;14.73;;;10.60;46.10;;;;;;5001013;28;20281;-54
2023/04/16 01:13:11;;;;;;;14.27;13.47;;;10.80;45.40;;;;;;5000566;28;20500;-54
2023/04/16 01:15:36;;;;;;;15.40;14.50;;;10.80;44.90;;;;;;5004320;28;20261;-55
2023/04/16 01:18:02;;;;;;;14.20;13.40;;;10.80;44.30;;;;;;5001160;28;20177;-56
2023/04/16 01:20:28;;;;;;;14.40;13.60;;;10.70;44.00;;;;;;5000278;28;20216;-58
2023/04/16 01:22:54;;;;;;;13.50;12.80;;;10.70;44.90;;;;;;5001358;28;20766;-57
2023/04/16 01:25:20;;;;;;;14.03;13.33;;;10.70;44.70;;;;;;5001980;28;20471;-57
2023/04/16 01:27:48;;;;;;;13.83;13.13;;;10.80;45.00;;;;;;5002878;28;20209;-57
2023/04/16 01:30:14;;;;;;;13.37;12.70;;;10.80;44.00;;;;;;5002746;28;20174;-57
2023/04/16 01:32:40;;;;;;;14.80;14.00;;;10.90;44.00;;;;;;5001016;28;20416;-59
2023/04/16 01:35:06;;;;;;;13.97;13.17;;;10.90;43.90;;;;;;5001569;28;20642;-57
2023/04/16 01:37:32;;;;;;;13.80;13.07;;;10.90;43.70;;;;;;5001281;28;20216;-57
2023/04/16 01:39:58;;;;;;;14.03;13.23;;;10.80;44.40;;;;;;4999462;28;20563;-57
2023/04/16 01:42:23;;;;;;;13.03;12.33;;;10.80;44.50;;;;;;5011607;28;20412;-59
2023/04/16 01:44:49;;;;;;;13.43;12.73;;;10.80;44.00;;;;;;5020570;28;20653;-57
2023/04/16 01:47:15;;;;;;;13.30;12.60;;;10.80;44.20;;;;;;5019747;28;20208;-57
2023/04/16 01:49:42;;;;;;;13.10;12.43;;;10.80;44.20;;;;;;5020179;28;20264;-57
2023/04/16 01:52:08;;;;;;;14.03;13.30;;;10.60;44.80;;;;;;5020655;28;20246;-58
2023/04/16 01:54:33;;;;;;;13.20;12.50;;;10.50;47.10;;;;;;5020555;28;20415;-56
2023/04/16 01:57:00;;;;;;;13.50;12.80;;;10.50;47.10;;;;;;5020317;28;20184;-56
2023/04/16 01:59:26;;;;;;;12.67;12.07;;;10.70;46.60;;;;;;5020881;28;20181;-56
2023/04/16 02:01:51;;;;;;;12.40;11.80;;;10.80;45.30;;;;;;5019963;28;20430;-55
2023/04/16 02:04:17;;;;;;;12.97;12.27;;;10.70;45.30;;;;;;5020807;28;20204;-57
2023/04/16 02:06:43;;;;;;;12.30;11.60;;;10.80;45.40;;;;;;5019993;28;20204;-56
2023/04/16 02:09:09;;;;;;;13.57;12.80;;;10.70;45.50;;;;;;5019189;28;20181;-58
2023/04/16 02:11:34;;;;;;;13.00;12.40;;;10.80;45.40;;;;;;5020781;28;20465;-57
2023/04/16 02:14:00;;;;;;;11.83;11.33;;;10.70;45.50;;;;;;5020588;28;20270;-58
2023/04/16 02:16:25;;;;;;;13.37;12.67;;;10.80;45.40;;;;;;5019369;28;20181;-57
2023/04/16 02:18:51;;;;;;;12.70;12.10;;;10.80;45.30;;;;;;5019971;28;20813;-57
2023/04/16 02:21:17;;;;;;;13.87;13.17;;;10.90;45.00;;;;;;5019022;28;20710;-57
2023/04/16 02:23:46;;;;;;;12.77;12.00;;;10.90;43.90;;;;;;5021487;28;20183;-56
2023/04/16 02:26:12;;;;;;;13.97;13.30;;;10.70;45.60;;;;;;5019620;28;20291;-58
2023/04/16 02:28:38;;;;;;;13.77;13.07;;;10.70;45.60;;;;;;5018259;28;20431;-58
2023/04/16 02:31:04;;;;;;;13.63;12.90;;;10.70;45.20;;;;;;5018444;28;20420;-58
2023/04/16 02:33:30;;;;;;;13.30;12.60;;;10.70;45.30;;;;;;5018861;28;20692;-57
2023/04/16 02:35:56;;;;;;;13.53;12.83;;;10.70;45.20;;;;;;5020357;28;20423;-58
2023/04/16 02:38:22;;;;;;;13.30;12.60;;;10.70;44.90;;;;;;5020028;28;20418;-58
2023/04/16 02:40:47;;;;;;;13.90;13.10;;;10.60;45.50;;;;;;5018854;28;20181;-57
2023/04/16 02:43:13;;;;;;;13.97;13.13;;;10.70;45.90;;;;;;5019715;28;20177;-57
2023/04/16 02:45:39;;;;;;;13.53;12.83;;;10.70;45.50;;;;;;5019905;28;20539;-57
2023/04/16 02:48:06;;;;;;;14.37;13.57;;;10.70;44.80;;;;;;5018831;28;20238;-57
2023/04/16 02:50:31;;;;;;;14.03;13.30;;;10.60;45.00;;;;;;5019941;28;20680;-58
2023/04/16 02:52:57;;;;;;;13.43;12.73;;;10.60;45.40;;;;;;5018613;28;20415;-57
2023/04/16 02:55:22;;;;;;;13.97;13.17;;;10.70;45.00;;;;;;5020313;28;20608;-58
2023/04/16 02:57:48;;;;;;;14.60;13.80;;;10.70;44.70;;;;;;5019606;28;20566;-57
2023/04/16 03:00:14;;;;;;;14.70;13.80;;;10.70;44.80;;;;;;5019437;28;20184;-57
2023/04/16 03:02:41;;;;;;;13.03;12.23;;;10.70;45.00;;;;;;5019245;28;20283;-54
2023/04/16 03:05:07;;;;;;;13.10;12.40;;;10.70;45.10;;;;;;5018970;28;20188;-56
2023/04/16 03:07:32;;;;;;;12.73;12.03;;;10.60;45.50;;;;;;5019276;28;20467;-56
2023/04/16 03:09:58;;;;;;;14.20;13.40;;;10.50;46.40;;;;;;5018391;28;20435;-55
2023/04/16 03:12:23;;;;;;;13.73;13.03;;;10.50;46.00;;;;;;5019274;28;20180;-56
2023/04/16 03:14:51;;;;;;;14.70;13.90;;;10.60;45.10;;;;;;5017370;28;20548;-56
2023/04/16 03:17:17;;;;;;;14.93;14.13;;;10.50;45.30;;;;;;5016700;28;20271;-57
2023/04/16 03:19:42;;;;;;;13.43;12.70;;;10.50;45.80;;;;;;5018652;28;20991;-56
2023/04/16 03:22:08;;;;;;;13.17;12.47;;;10.50;46.00;;;;;;5023325;28;20192;-56
2023/04/16 03:24:33;;;;;;;15.13;14.33;;;10.60;45.80;;;;;;5022036;28;20254;-57
2023/04/16 03:27:00;;;;;;;15.37;14.47;;;10.60;45.10;;;;;;5024918;28;20212;-56
2023/04/16 03:29:26;;;;;;;14.40;13.60;;;10.60;45.30;;;;;;5025300;28;20172;-57
2023/04/16 03:31:52;;;;;;;15.27;14.47;;;10.60;44.80;;;;;;5025601;28;20918;-57
2023/04/16 03:34:17;;;;;;;14.57;13.73;;;10.60;45.10;;;;;;5026239;28;20207;-57
2023/04/16 03:36:43;;;;;;;16.03;15.13;;;10.60;45.00;;;;;;5025362;28;20287;-57
2023/04/16 03:39:08;;;;;;;16.10;15.10;;;10.50;45.40;;;;;;5025914;28;20185;-54
2023/04/16 03:41:34;;;;;;;15.60;14.70;;;10.50;45.40;;;;;;5026435;28;20223;-55
2023/04/16 03:43:59;;;;;;;14.93;14.03;;;10.50;45.60;;;;;;5027464;28;20322;-55
2023/04/16 03:46:25;;;;;;;15.10;14.20;;;10.40;45.50;;;;;;5030745;28;20579;-55
2023/04/16 03:48:51;;;;;;;14.67;13.77;;;10.30;46.70;;;;;;5030413;28;20263;-57
2023/04/16 03:51:16;;;;;;;15.87;14.87;;;10.40;46.20;;;;;;5029667;28;20299;-56
2023/04/16 03:53:42;;;;;;;14.67;13.80;;;10.40;46.40;;;;;;5012718;28;20176;-56
2023/04/16 03:56:07;;;;;;;15.70;14.80;;;10.50;46.50;;;;;;5029965;28;20187;-56
2023/04/16 03:58:33;;;;;;;14.20;13.40;;;10.40;46.30;;;;;;5031285;28;20278;-55
2023/04/16 04:00:58;;;;;;;16.90;15.90;;;10.50;46.70;;;;;;5030476;28;20652;-54
2023/04/16 04:03:25;;;;;;;15.23;14.27;;;10.50;46.00;;;;;;5030544;28;20211;-55
2023/04/16 04:05:50;;;;;;;14.77;13.83;;;10.50;46.20;;;;;;5033009;28;20180;-53
2023/04/16 04:08:16;;;;;;;16.50;15.50;;;10.50;46.00;;;;;;5031774;28;20793;-54
2023/04/16 04:10:41;;;;;;;15.30;14.30;;;10.00;48.80;;;;;;5031846;28;20176;-55
2023/04/16 04:13:07;;;;;;;16.93;15.93;;;10.10;48.70;;;;;;5033266;28;20216;-54
2023/04/16 04:15:33;;;;;;;15.97;14.77;;;10.10;48.20;;;;;;5033619;28;20179;-53
2023/04/16 04:17:58;;;;;;;15.50;14.50;;;10.30;47.90;;;;;;5033511;28;20184;-56
2023/04/16 04:20:24;;;;;;;15.93;14.93;;;10.40;47.60;;;;;;5023571;28;20200;-57
2023/04/16 04:22:50;;;;;;;15.50;14.50;;;10.40;47.10;;;;;;5021364;28;20246;-57
2023/04/16 04:25:16;;;;;;;14.60;13.70;;;10.20;47.00;;;;;;5015547;28;20191;-56
2023/04/16 04:27:42;;;;;;;15.43;14.43;;;10.20;48.30;;;;;;5013718;28;20300;-57
2023/04/16 04:30:08;;;;;;;16.17;15.17;;;10.30;47.60;;;;;;5012335;28;20963;-56
2023/04/16 04:32:34;;;;;;;14.20;13.30;;;10.40;47.30;;;;;;5012474;28;20428;-55
2023/04/16 04:35:01;;;;;;;14.03;13.23;;;10.50;46.70;;;;;;5014359;28;20780;-55
2023/04/16 04:37:27;;;;;;;15.80;14.80;;;10.50;46.10;;;;;;5013926;28;20588;-55
2023/04/16 04:39:53;;;;;;;15.17;14.17;;;10.60;45.70;;;;;;5014200;28;20424;-56
2023/04/16 04:42:19;;;;;;;14.57;13.67;;;10.60;45.40;;;;;;5014660;28;20201;-54
2023/04/16 04:44:45;;;;;;;14.70;13.80;;;10.70;44.90;;;;;;5026266;28;20228;-55
2023/04/16 04:47:11;;;;;;;14.70;13.70;;;10.60;44.90;;;;;;5015249;28;20490;-54
2023/04/16 04:49:36;;;;;;;14.40;13.50;;;10.60;45.20;;;;;;5013588;28;20181;-55
2023/04/16 04:52:02;;;;;;;14.20;13.30;;;10.60;46.40;;;;;;5012371;28;20515;-57
2023/04/16 04:54:29;;;;;;;15.27;14.37;;;10.60;45.40;;;;;;5013844;28;20615;-57
2023/04/16 04:56:55;;;;;;;13.87;13.07;;;10.60;45.60;;;;;;5018785;28;20271;-57
2023/04/16 04:59:21;;;;;;;14.40;13.50;;;10.60;45.20;;;;;;5013700;28;20975;-57
2023/04/16 05:01:47;;;;;;;15.13;14.23;;;10.40;45.90;;;;;;5013071;28;20419;-59
2023/04/16 05:04:12;;;;;;;14.80;13.90;;;10.40;46.60;;;;;;5013189;28;20444;-58
2023/04/16 05:06:38;;;;;;;15.17;14.17;;;10.50;47.00;;;;;;5017411;28;20209;-58
2023/04/16 05:09:04;;;;;;;15.23;14.20;;;10.50;46.00;;;;;;5013351;28;20340;-59
2023/04/16 05:11:29;;;;;;;14.73;13.80;;;10.50;46.00;;;;;;5012697;28;20197;-58
2023/04/16 05:13:55;;;;;;;15.27;14.37;;;10.60;45.80;;;;;;5012897;28;20342;-59
2023/04/16 05:16:21;;;;;;;15.53;14.63;;;10.60;45.40;;;;;;5013338;28;20727;-61
2023/04/16 05:18:46;;;;;;;16.63;15.70;;;10.60;45.20;;;;;;5013215;28;20431;-57
2023/04/16 05:21:12;;;;;;;14.67;13.77;;;10.50;45.70;;;;;;5011322;28;20217;-56
2023/04/16 05:23:38;;;;;;;15.17;14.27;;;10.50;46.20;;;;;;5002728;28;20685;-57
2023/04/16 05:26:03;;;;;;;16.77;15.77;;;10.50;46.60;;;;;;5014565;28;20610;-57
2023/04/16 05:28:29;;;;;;;17.83;16.43;;;10.50;46.40;;;;;;5016981;28;20622;-57
2023/04/16 05:30:55;;;;;;;19.00;17.70;;;10.50;46.40;;;;;;5011666;28;20177;-57
2023/04/16 05:33:21;;;;;;;20.23;18.83;;;10.50;45.60;;;;;;5019089;28;20546;-57
2023/04/16 05:35:46;;;;;;;19.93;18.27;;;10.40;46.60;;;;;;5014767;28;20544;-60
2023/04/16 05:38:12;;;;;;;20.70;19.20;;;10.40;47.00;;;;;;5012135;28;20188;-60
2023/04/16 05:40:37;;;;;;;21.97;20.27;;;10.40;45.90;;;;;;5012810;28;20231;-60
2023/04/16 05:43:03;;;;;;;20.90;19.40;;;10.10;48.00;;;;;;5012311;28;20180;-60
2023/04/16 05:45:30;;;;;;;20.70;19.20;;;10.00;48.80;;;;;;5011377;28;20178;-60
2023/04/16 05:47:55;;;;;;;21.50;20.00;;;10.00;50.00;;;;;;5011908;28;20220;-63
2023/04/16 05:50:21;;;;;;;22.10;20.50;;;10.10;50.30;;;;;;5011358;28;20417;-61
2023/04/16 05:52:46;;;;;;;23.90;22.10;;;10.30;48.60;;;;;;5009763;28;20634;-58
2023/04/16 05:55:12;;;;;;;24.93;23.03;;;10.30;48.20;;;;;;5010885;28;20182;-63
2023/04/16 05:57:38;;;;;;;25.13;23.03;;;10.40;47.70;;;;;;5011108;28;20308;-58
2023/04/16 06:00:04;;;;;;;23.70;22.00;;;10.40;47.70;;;;;;5009998;28;20276;-60
2023/04/16 06:02:30;;;;;;;25.53;23.63;;;10.40;47.70;;;;;;5009818;28;20205;-59
2023/04/16 06:04:55;;;;;;;25.50;23.50;;;10.50;47.60;;;;;;5016300;28;20769;-59
2023/04/16 06:07:21;;;;;;;26.50;24.40;;;10.50;47.60;;;;;;5018267;28;20196;-60
2023/04/16 06:09:47;;;;;;;24.33;22.57;;;10.50;47.30;;;;;;5019348;28;20196;-60
2023/04/16 06:12:12;;;;;;;26.30;24.40;;;10.30;48.60;;;;;;5014432;28;20498;-60
2023/04/16 06:14:38;;;;;;;24.13;22.33;;;10.20;49.60;;;;;;5022209;28;20228;-59
2023/04/16 06:17:03;;;;;;;26.73;24.53;;;10.30;48.80;;;;;;5018521;28;20181;-58
2023/04/16 06:19:29;;;;;;;25.80;23.80;;;10.30;48.90;;;;;;5012096;28;20620;-58
2023/04/16 06:21:55;;;;;;;25.93;24.00;;;10.40;48.60;;;;;;5009401;28;20551;-58
2023/04/16 06:24:21;;;;;;;23.93;22.13;;;10.40;49.50;;;;;;5016388;28;20220;-58
2023/04/16 06:26:46;;;;;;;25.10;23.20;;;10.40;49.00;;;;;;5021031;28;20455;-56
2023/04/16 06:29:12;;;;;;;22.83;21.17;;;10.40;48.40;;;;;;5012592;28;20183;-55
2023/04/16 06:31:37;;;;;;;23.13;21.30;;;10.40;48.80;;;;;;5011357;28;20296;-57
2023/04/16 06:34:03;;;;;;;24.23;22.33;;;10.40;48.00;;;;;;5020786;28;20244;-58
2023/04/16 06:36:30;;;;;;;25.60;23.50;;;10.50;47.30;;;;;;5016399;28;20243;-58
2023/04/16 06:38:55;;;;;;;25.67;23.60;;;10.50;47.30;;;;;;5010835;28;20181;-58
2023/04/16 06:41:22;;;;;;;28.20;26.00;;;10.50;46.50;;;;;;5010554;28;20416;-59
2023/04/16 06:43:48;;;;;;;26.17;24.17;;;10.40;47.80;;;;;;5009989;28;20204;-58
2023/04/16 06:46:14;;;;;;;25.60;23.53;;;10.40;47.20;;;;;;5011511;28;21022;-59
2023/04/16 06:48:39;;;;;;;25.70;23.67;;;10.30;47.40;;;;;;5029618;28;20411;-58
2023/04/16 06:51:05;;;;;;;24.83;22.93;;;10.40;47.10;;;;;;5013938;28;20279;-58
2023/04/16 06:53:31;;;;;;;26.10;24.00;;;10.50;47.00;;;;;;5023930;28;20176;-57
2023/04/16 06:55:57;;;;;;;25.30;23.43;;;10.40;47.10;;;;;;5011284;28;20649;-58
2023/04/16 06:58:23;;;;;;;25.43;23.47;;;10.40;47.10;;;;;;5010813;28;20423;-58
2023/04/16 07:00:48;;;;;;;24.57;22.57;;;10.50;46.50;;;;;;5012153;28;20217;-55
2023/04/16 07:03:14;;;;;;;25.50;23.50;;;10.50;47.10;;;;;;5010016;28;20192;-58
2023/04/16 07:05:39;;;;;;;25.93;23.83;;;10.50;46.60;;;;;;5009885;28;20173;-58
2023/04/16 07:08:05;;;;;;;25.60;23.50;;;10.30;47.30;;;;;;5010439;28;20205;-58
2023/04/16 07:10:30;;;;;;;25.10;23.20;;;10.40;47.30;;;;;;5010580;28;20588;-58
2023/04/16 07:12:56;;;;;;;24.57;22.57;;;10.20;48.70;;;;;;5010676;28;20756;-58
2023/04/16 07:15:22;;;;;;;24.17;22.37;;;10.30;48.20;;;;;;5011452;28;20176;-58
2023/04/16 07:17:47;;;;;;;25.27;23.13;;;10.30;47.70;;;;;;5011369;28;20235;-60
2023/04/16 07:20:13;;;;;;;26.43;24.00;;;10.30;48.00;;;;;;5011465;28;20272;-58
2023/04/16 07:22:39;;;;;;;24.43;22.40;;;10.30;48.40;;;;;;5010812;28;20180;-57
2023/04/16 07:25:05;;;;;;;23.30;21.33;;;10.40;47.40;;;;;;5011059;28;20200;-58
2023/04/16 07:27:30;;;;;;;23.10;21.30;;;10.40;47.70;;;;;;5012018;28;20213;-58
2023/04/16 07:29:56;;;;;;;24.13;22.23;;;10.50;47.40;;;;;;5010517;28;20412;-58
2023/04/16 07:32:22;;;;;;;24.17;22.17;;;10.50;47.20;;;;;;5009550;28;20186;-58
2023/04/16 07:34:47;;;;;;;23.47;21.67;;;10.60;46.60;;;;;;5009694;28;20173;-58
2023/04/16 07:37:13;;;;;;;23.37;21.60;;;10.50;46.00;;;;;;5010548;28;20905;-57
2023/04/16 07:39:39;;;;;;;24.47;22.40;;;10.50;46.70;;;;;;5010430;28;20177;-58
2023/04/16 07:42:05;;;;;;;24.70;22.90;;;10.50;46.10;;;;;;5009820;28;20544;-57
2023/04/16 07:44:31;;;;;;;22.60;21.00;;;10.60;46.00;;;;;;5010946;28;20181;-58
2023/04/16 07:46:56;;;;;;;24.37;22.17;;;10.60;45.90;;;;;;5010054;28;21071;-58
2023/04/16 07:49:22;;;;;;;22.00;20.40;;;10.40;47.70;;;;;;5010876;28;20180;-58
2023/04/16 07:51:47;;;;;;;24.10;22.20;;;10.40;48.00;;;;;;5010322;28;20177;-58
2023/04/16 07:54:13;;;;;;;21.70;20.20;;;10.50;48.10;;;;;;5010830;28;20169;-58
2023/04/16 07:56:39;;;;;;;25.00;23.00;;;10.60;47.00;;;;;;5011962;28;20177;-58
2023/04/16 07:59:04;;;;;;;22.77;20.97;;;10.60;45.90;;;;;;5010736;28;20177;-58
2023/04/16 08:01:30;;;;;;;23.37;21.50;;;10.70;45.90;;;;;;5008922;28;20185;-58
2023/04/16 08:03:56;;;;;;;24.20;22.47;;;10.70;45.70;;;;;;5010566;28;20201;-58
2023/04/16 08:06:22;;;;;;;22.87;21.07;;;10.70;45.70;;;;;;5010103;28;20448;-59
2023/04/16 08:08:47;;;;;;;24.73;22.97;;;10.60;45.40;;;;;;5012641;28;20585;-58
2023/04/16 08:11:14;;;;;;;22.93;21.13;;;10.50;46.40;;;;;;5012655;28;20201;-58
2023/04/16 08:13:40;;;;;;;23.07;21.37;;;10.60;46.10;;;;;;5013590;28;20651;-57
2023/04/16 08:16:05;;;;;;;20.87;19.27;;;10.50;46.50;;;;;;5013003;28;20495;-57
2023/04/16 08:18:31;;;;;;;23.27;21.47;;;10.50;47.10;;;;;;5014367;28;20415;-58
2023/04/16 08:20:57;;;;;;;22.10;20.40;;;10.40;46.70;;;;;;5012812;28;20428;-57
2023/04/16 08:23:22;;;;;;;23.00;21.30;;;10.50;46.80;;;;;;5013165;28;20272;-57
2023/04/16 08:25:48;;;;;;;22.10;20.50;;;10.30;47.30;;;;;;5013381;28;20182;-57
2023/04/16 08:28:14;;;;;;;19.70;18.30;;;10.30;47.90;;;;;;5013986;28;20185;-57
2023/04/16 08:30:40;;;;;;;21.30;19.30;;;10.40;47.90;;;;;;5014030;28;20184;-57
2023/04/16 08:33:05;;;;;;;22.67;21.03;;;10.60;46.60;;;;;;5013494;28;20417;-58
2023/04/16 08:35:31;;;;;;;20.23;18.83;;;10.60;45.00;;;;;;5013962;28;20553;-57
2023/04/16 08:37:58;;;;;;;20.97;19.37;;;10.50;46.00;;;;;;5013812;28;20173;-57
2023/04/16 08:40:27;;;;;;;20.50;19.00;;;10.50;45.60;;;;;;5013933;28;20188;-58
2023/04/16 08:42:57;;;;;;;21.57;19.77;;;10.60;45.30;;;;;;5012476;28;20476;-57
2023/04/16 08:45:25;;;;;;;21.83;20.20;;;10.60;44.60;;;;;;5013710;28;20420;-59
2023/04/16 08:47:52;;;;;;;21.50;19.80;;;10.50;44.90;;;;;;5013477;28;20494;-58
2023/04/16 08:50:23;;;;;;;20.23;18.83;;;10.40;45.70;;;;;;5013606;28;20785;-57
2023/04/16 08:52:52;;;;;;;20.77;19.27;;;10.50;46.50;;;;;;5012991;28;20791;-58
2023/04/16 08:55:25;;;;;;;22.47;20.77;;;10.60;45.40;;;;;;5012927;28;20412;-57
2023/04/16 08:57:56;;;;;;;21.03;19.53;;;10.50;45.50;;;;;;5014691;28;20444;-57
2023/04/16 09:00:23;;;;;;;20.83;19.23;;;10.50;46.40;;;;;;5013604;28;20428;-57
2023/04/16 09:02:49;;;;;;;20.73;19.20;;;10.50;46.40;;;;;;5012661;28;20486;-57
2023/04/16 09:05:16;;;;;;;21.80;20.30;;;10.60;46.30;;;;;;5013291;28;20482;-57
2023/04/16 09:07:45;;;;;;;20.60;19.03;;;10.50;46.70;;;;;;5013088;28;20472;-56
2023/04/16 09:10:13;;;;;;;18.87;17.50;;;10.50;46.40;;;;;;5013220;28;20475;-57
2023/04/16 09:12:41;;;;;;;19.40;18.00;;;10.50;46.10;;;;;;5012530;28;20455;-57
2023/04/16 09:15:12;;;;;;;21.13;19.43;;;10.40;47.10;;;;;;5013245;28;20412;-57
2023/04/16 09:17:38;;;;;;;19.33;17.90;;;10.40;47.80;;;;;;5013120;28;20428;-57
2023/04/16 09:20:07;;;;;;;21.03;19.33;;;10.50;47.10;;;;;;5012757;28;21004;-57
2023/04/16 09:22:34;;;;;;;21.20;19.43;;;10.50;47.30;;;;;;5012419;28;20468;-56
2023/04/16 09:24:59;;;;;;;39.97;36.47;;;10.50;47.40;;;;;;5012990;28;20456;-57
2023/04/16 09:27:25;;;;;;;22.17;20.40;;;10.50;46.70;;;;;;5012781;28;20547;-58
2023/04/16 09:29:51;;;;;;;21.37;19.87;;;10.50;46.70;;;;;;5012834;28;20543;-56
2023/04/16 09:32:25;;;;;;;20.27;18.57;;;10.50;47.00;;;;;;5012173;28;20427;-57
2023/04/16 09:34:56;;;;;;;21.70;20.00;;;10.50;47.00;;;;;;5012672;28;20657;-57
2023/04/16 09:37:22;;;;;;;21.63;19.83;;;10.60;47.40;;;;;;5011299;28;20428;-56
2023/04/16 09:39:54;;;;;;;20.53;19.03;;;10.70;46.50;;;;;;5012497;28;20916;-56
2023/04/16 09:42:27;;;;;;;20.73;19.03;;;10.70;45.90;;;;;;5011209;28;20432;-56
2023/04/16 09:44:54;;;;;;;19.37;17.97;;;10.70;46.00;;;;;;5011832;28;20859;-56
2023/04/16 09:47:20;;;;;;;19.13;17.63;;;10.80;46.60;;;;;;5012444;28;20468;-57
2023/04/16 09:49:46;;;;;;;21.97;20.27;;;10.80;45.30;;;;;;5020170;28;20438;-55
2023/04/16 09:52:21;;;;;;;19.87;18.17;;;10.80;45.80;;;;;;5015449;28;20791;-56
2023/04/16 09:54:52;;;;;;;19.47;17.83;;;10.90;45.20;;;;;;5011787;28;20485;-55
2023/04/16 09:57:23;;;;;;;20.47;18.80;;;11.00;44.70;;;;;;5012294;28;20865;-54
2023/04/16 10:00:00;;;;;;;20.50;18.90;;;10.90;44.20;;;;;;5012229;28;20443;-54
2023/04/16 10:02:27;;;;;;;21.00;19.40;;;10.90;43.80;;;;;;5011801;28;20510;-56
2023/04/16 10:04:53;;;;;;;20.23;18.63;;;10.90;44.20;;;;;;5015317;28;20444;-57
2023/04/16 10:07:19;;;;;;;23.13;21.33;;;10.90;44.20;;;;;;5011972;28;20931;-57
2023/04/16 10:09:51;;;;;;;21.30;19.60;;;10.90;45.10;;;;;;5012325;28;20507;-58
2023/04/16 10:12:18;;;;;;;21.13;19.50;;;10.90;44.20;;;;;;5011327;28;20424;-59
2023/04/16 10:14:44;;;;;;;21.67;20.07;;;10.90;44.80;;;;;;5012122;28;20416;-59
2023/04/16 10:17:10;;;;;;;19.97;18.43;;;10.90;44.00;;;;;;5012076;28;20428;-57
2023/04/16 10:19:35;;;;;;;20.40;18.80;;;10.90;44.00;;;;;;5014230;28;20427;-57
2023/04/16 10:22:02;;;;;;;21.50;19.80;;;10.90;44.30;;;;;;5013210;28;20193;-57
2023/04/16 10:24:29;;;;;;;21.93;20.10;;;10.90;44.00;;;;;;5014165;28;20435;-58
2023/04/16 10:26:55;;;;;;;20.13;18.63;;;10.90;44.60;;;;;;5015173;28;20459;-57
2023/04/16 10:29:22;;;;;;;21.17;19.50;;;10.90;45.50;;;;;;5017162;28;20428;-58
2023/04/16 10:31:49;;;;;;;19.73;18.13;;;10.70;46.20;;;;;;5016376;28;20518;-58
2023/04/16 10:34:15;;;;;;;19.60;18.00;;;10.60;47.50;;;;;;5012949;28;20507;-58
2023/04/16 10:36:41;;;;;;;20.80;19.30;;;10.60;46.50;;;;;;5011842;28;20424;-58
2023/04/16 10:39:12;;;;;;;19.57;18.07;;;10.70;46.50;;;;;;5012488;28;20425;-58
2023/04/16 10:41:38;;;;;;;20.97;19.13;;;10.80;46.30;;;;;;5011978;28;20507;-58
2023/04/16 10:44:08;;;;;;;20.60;19.00;;;10.80;48.00;;;;;;5011284;28;20507;-59
2023/04/16 10:46:40;;;;;;;21.37;19.77;;;10.80;46.80;;;;;;5015847;28;20209;-59
2023/04/16 10:49:25;;;;;;;20.50;19.00;;;10.90;45.30;;;;;;5019832;28;20434;-59
2023/04/16 10:51:54;;;;;;;19.97;18.30;;;10.90;44.70;;;;;;5020947;28;20483;-59
2023/04/16 10:54:22;;;;;;;20.80;18.93;;;10.90;44.90;;;;;;5011682;28;20519;-58
2023/04/16 10:56:49;;;;;;;19.37;17.83;;;10.90;45.70;;;;;;5011649;28;20519;-59
2023/04/16 10:59:20;;;;;;;19.33;17.80;;;10.90;46.00;;;;;;5009785;28;20416;-59
2023/04/16 11:01:51;;;;;;;22.87;20.90;;;10.80;46.80;;;;;;5010874;28;20428;-59
2023/04/16 11:04:20;;;;;;;20.57;18.87;;;10.70;48.60;;;;;;5017759;28;20444;-58
2023/04/16 11:07:10;;;;;;;19.23;17.53;;;10.70;48.10;;;;;;5015780;28;20467;-58
2023/04/16 11:09:58;;;;;;;18.40;17.00;;;10.60;49.10;;;;;;5010848;28;20437;-58
2023/04/16 11:12:37;;;;;;;17.57;16.17;;;10.80;46.90;;;;;;5015720;28;20498;-58
2023/04/16 11:15:04;;;;;;;17.20;15.80;;;10.80;46.80;;;;;;5018856;28;20423;-58
2023/04/16 11:17:42;;;;;;;16.90;15.60;;;10.90;46.10;;;;;;5010696;28;20428;-59
2023/04/16 11:20:17;;;;;;;17.60;16.10;;;10.90;46.60;;;;;;5009536;28;20558;-58
2023/04/16 11:22:44;;;;;;;16.93;15.57;;;10.80;48.20;;;;;;5008563;28;20424;-59
2023/04/16 11:25:10;;;;;;;16.23;14.90;;;10.80;48.20;;;;;;5015711;28;20551;-58
2023/04/16 11:27:36;;;;;;;15.50;14.37;;;10.90;47.60;;;;;;5012847;28;20596;-58
2023/04/16 11:30:08;;;;;;;14.50;13.40;;;10.90;46.70;;;;;;5009954;28;20431;-59
2023/04/16 11:32:35;;;;;;;14.23;13.20;;;10.90;46.40;;;;;;5010025;28;20177;-59
2023/04/16 11:35:11;;;;;;;13.67;12.47;;;10.90;46.20;;;;;;5010619;28;20404;-59
2023/04/16 11:37:37;;;;;;;13.73;12.80;;;10.80;46.40;;;;;;5009210;28;20420;-59
2023/04/16 11:40:08;;;;;;;13.33;12.43;;;10.90;46.90;;;;;;5015133;28;20428;-59
2023/04/16 11:42:39;;;;;;;12.60;11.70;;;10.90;46.10;;;;;;5021691;28;20435;-58
2023/04/16 11:45:06;;;;;;;12.97;12.17;;;11.00;46.70;;;;;;5015749;28;20909;-59
2023/04/16 11:47:40;;;;;;;12.77;11.80;;;11.00;47.40;;;;;;5014636;28;20485;-58
2023/04/16 11:50:23;;;;;;;11.90;11.20;;;11.00;47.70;;;;;;5009292;28;20430;-58
2023/04/16 11:52:51;;;;;;;11.67;10.97;;;11.10;47.40;;;;;;5016439;28;20722;-58
2023/04/16 11:55:18;;;;;;;12.43;11.67;;;11.10;46.80;;;;;;5017418;28;20412;-58
2023/04/16 11:57:44;;;;;;;12.23;11.13;;;11.00;47.50;;;;;;5014937;28;20987;-58
2023/04/16 12:00:13;;;;;;;11.47;10.77;;;11.00;47.20;;;;;;5005537;28;20527;-58
2023/04/16 12:02:52;;;;;;;11.57;10.87;;;11.10;46.50;;;;;;5006172;28;20446;-58
2023/04/16 12:05:36;;;;;;;11.37;10.67;;;11.10;46.70;;;;;;5010771;28;20439;-58
2023/04/16 12:08:07;;;;;;;11.37;10.67;;;11.10;46.80;;;;;;5019901;28;20482;-58
2023/04/16 12:10:51;;;;;;;10.40;9.70;;;11.10;46.90;;;;;;5019580;28;20439;-58
2023/04/16 12:13:17;;;;;;;10.70;10.03;;;11.10;47.40;;;;;;5013963;28;20525;-58
2023/04/16 12:15:47;;;;;;;10.10;9.37;;;11.10;46.30;;;;;;5016593;28;20452;-59
2023/04/16 12:18:15;;;;;;;10.83;10.03;;;11.10;46.30;;;;;;5013935;28;20606;-58
2023/04/16 12:20:41;;;;;;;22.37;20.50;;;11.00;46.20;;;;;;5013839;28;20467;-57
2023/04/16 12:23:07;;;;;;;10.27;9.57;;;11.00;46.30;;;;;;5013443;28;20821;-58
2023/04/16 12:25:33;;;;;;;11.00;10.30;;;11.00;46.80;;;;;;5014073;28;20514;-57